Pagrindinis puslapis
METAR-TAF:

METAR-TAF

Oro uostai :

Bluefields, Nikaragva

platuma: 12-00N, ilguma: 083-46W, Aukštis: 5 m

Dabartinis oras

Ataskaita buvo paskelbta 6 valandos ir 13 minutes, ne 23:00 UTC
Vėjas 6 kt iš Rytų
Temperatūra 28°C
Drėgmė 74%
Slėgis 1010 hPa
Matomumas: 8000 m
Su prošvaistėmis ne aukštis 1700 ft
netoliese, lietus, lietus

METAR: MNBL 312300Z 10006KT 8000 VCRA BKN017 28/23 Q1010 RA S W

Laikas: 23:13 (05:13 UTC)

Prognozė

Ataskaita buvo paskelbta 8 valandos ir 13 minutes, ne 21:00 UTC
Prognozė galioja nuo 01 metu 00 UTC su 01 metu 24 UTC
Vėjas 8 kt iš Rytų
Matomumas: 7000 m
Apsiniaukę ne aukštis 1700 ft
netoliese, lietus
Nuo 01 metu 0200 UTC
Vėjas 8 kt iš Rytų
Matomumas: 8000 m
Išsisklaidę debesys ne aukštis 1800 ft
Tapsmas
nuo 01 metu 12 UTC su 01 metu 18 UTC
Vėjas 6 kt iš Rytų/Šiaurės Rytų
Matomumas: 9000 m
Išsisklaidę debesys ne aukštis 2000 ft
dulksna

TAF: MNBL 312100Z 0100/0124 10008KT 7000 VCRA OVC017 FM010200 10008KT 8000 SCT018 BECMG 0112/0118 06006KT 9000 -DZ SCT020

Orai ataskaitas ir orų prognozės (METAR, TAF).

turimą stotys yra geltonos ir raudonos taškus žemėlapyje.

Perkelti pele per norėdami pamatyti stoties vardą.

Tada spustelėkite, norėdami matyti oro stebėjimo ir prognozės.

Norėdami pakeisti žemėlapį: spustelėkite ant žalios mygtukų su juodo kryžiaus žemyn,; žalią mygtuką su brūkšneliu, jei norite nutolinti; arba žalių rodyklių gretimoms žemėlapius.


METAR-TAF: